Time;durP1;ratioP1;P1;durP2;ratioP2;P2;SDS_P1;SDS_P2;PMS_P1;PMS_P2;Temp;Humidity;BMP_temperature;BMP_pressure;BME280_temperature;BME280_humidity;BME280_pressure;Samples;Min_cycle;Max_cycle;Signal;HPM_P1;HPM_P2
2023/11/26 00:00:21;;;;;;;11.03;5.40;;;5.90;1.00;;;;;;5025307;28;20548;-86
2023/11/26 00:02:47;;;;;;;13.33;5.67;;;5.80;1.00;;;;;;5017122;28;20193;-87
2023/11/26 00:05:13;;;;;;;10.17;4.93;;;5.80;1.00;;;;;;5034947;28;20183;-87
2023/11/26 00:07:38;;;;;;;10.10;5.00;;;5.80;1.00;;;;;;5021015;28;20676;-85
2023/11/26 00:10:04;;;;;;;29.47;6.00;;;5.80;1.00;;;;;;5016973;28;20190;-87
2023/11/26 00:12:35;;;;;;;12.43;5.43;;;5.70;1.00;;;;;;5031901;28;20238;-86
2023/11/26 00:15:01;;;;;;;11.05;5.20;;;5.70;1.00;;;;;;5018671;28;20445;-87
2023/11/26 00:17:27;;;;;;;13.02;6.03;;;5.70;1.00;;;;;;5036492;28;20199;-85
2023/11/26 00:19:54;;;;;;;14.77;5.43;;;5.70;1.00;;;;;;5031654;28;20245;-87
2023/11/26 00:22:19;;;;;;;14.48;6.50;;;5.70;1.00;;;;;;5034456;28;20261;-85
2023/11/26 00:24:45;;;;;;;30.60;5.90;;;5.70;1.00;;;;;;5017242;28;20221;-84
2023/11/26 00:27:11;;;;;;;15.98;6.00;;;5.70;1.00;;;;;;5011253;28;20428;-88
2023/11/26 00:29:42;;;;;;;12.77;5.10;;;5.70;1.00;;;;;;5033716;28;20595;-87
2023/11/26 00:32:08;;;;;;;11.10;5.80;;;5.80;1.00;;;;;;5016380;28;20687;-88
2023/11/26 00:34:36;;;;;;;17.80;6.90;;;5.70;1.00;;;;;;5032246;28;20210;-88
2023/11/26 00:37:02;;;;;;;11.13;5.15;;;5.70;1.00;;;;;;5024965;28;20205;-88
2023/11/26 00:39:29;;;;;;;11.07;5.15;;;5.60;1.00;;;;;;5008379;28;20290;-87
2023/11/26 00:41:54;;;;;;;9.52;5.50;;;5.60;1.00;;;;;;5013887;28;20238;-88
2023/11/26 00:44:22;;;;;;;25.23;6.53;;;5.50;1.00;;;;;;5031585;28;20190;-89
2023/11/26 00:46:48;;;;;;;13.43;6.38;;;5.40;1.00;;;;;;5016529;28;20688;-88
2023/11/26 00:49:13;;;;;;;15.43;6.30;;;5.40;1.00;;;;;;5024218;28;20218;-87
2023/11/26 00:51:39;;;;;;;13.50;5.73;;;5.30;1.00;;;;;;5010950;28;20458;-88
2023/11/26 00:54:06;;;;;;;12.37;5.53;;;5.20;1.00;;;;;;5032067;28;20186;-88
2023/11/26 00:56:34;;;;;;;13.93;5.80;;;5.10;1.00;;;;;;5034346;28;20257;-88
2023/11/26 00:59:00;;;;;;;17.60;5.55;;;5.00;1.00;;;;;;5025302;28;20195;-88
2023/11/26 01:01:25;;;;;;;14.70;5.10;;;4.90;1.00;;;;;;4994152;28;20716;-89
2023/11/26 01:03:51;;;;;;;12.53;6.47;;;4.90;1.00;;;;;;5025078;28;20174;-88
2023/11/26 01:06:18;;;;;;;11.53;6.73;;;4.80;1.00;;;;;;5012429;28;20199;-89
2023/11/26 01:08:43;;;;;;;14.38;5.70;;;4.70;1.00;;;;;;5020823;28;20556;-88
2023/11/26 01:11:12;;;;;;;13.90;5.30;;;4.70;1.00;;;;;;5015283;28;20182;-89
2023/11/26 01:13:39;;;;;;;18.40;6.60;;;4.70;1.00;;;;;;5015619;28;20190;-87
2023/11/26 01:16:06;;;;;;;13.07;6.50;;;4.60;1.00;;;;;;5037144;28;20217;-88
2023/11/26 01:18:31;;;;;;;18.25;7.68;;;4.60;1.00;;;;;;5027454;28;20219;-88
2023/11/26 01:20:57;;;;;;;14.17;7.10;;;4.60;1.00;;;;;;5032833;28;20218;-88
2023/11/26 01:23:22;;;;;;;22.50;6.90;;;4.60;1.00;;;;;;5031414;28;20182;-88
2023/11/26 01:25:48;;;;;;;15.20;6.57;;;4.60;1.00;;;;;;5016401;28;20182;-88
2023/11/26 01:28:14;;;;;;;12.83;6.50;;;4.60;1.00;;;;;;5016372;28;20567;-88
2023/11/26 01:30:39;;;;;;;17.83;7.87;;;4.60;1.00;;;;;;5032994;28;20194;-88
2023/11/26 01:33:07;;;;;;;12.33;6.97;;;4.60;1.00;;;;;;5012101;28;20194;-88
2023/11/26 01:35:33;;;;;;;16.88;6.90;;;4.60;1.00;;;;;;5015607;28;20187;-88
2023/11/26 01:37:59;;;;;;;25.47;9.70;;;4.60;1.00;;;;;;5013549;28;20213;-88
2023/11/26 01:40:25;;;;;;;20.50;9.40;;;4.60;1.00;;;;;;5027171;28;20469;-87
2023/11/26 01:42:51;;;;;;;20.93;7.90;;;4.60;1.00;;;;;;5013099;28;20736;-88
2023/11/26 01:45:16;;;;;;;18.87;8.50;;;4.50;1.00;;;;;;5020190;28;20274;-88
2023/11/26 01:47:42;;;;;;;15.57;8.37;;;4.50;1.00;;;;;;5024950;28;20564;-88
2023/11/26 01:50:09;;;;;;;18.88;7.53;;;4.50;1.00;;;;;;5029798;28;20221;-88
2023/11/26 01:52:35;;;;;;;19.80;7.95;;;4.50;1.00;;;;;;5004256;28;20607;-88
2023/11/26 01:55:01;;;;;;;18.02;7.88;;;4.40;1.00;;;;;;5015160;28;20187;-89
2023/11/26 01:57:27;;;;;;;18.63;7.80;;;4.40;1.00;;;;;;5011901;28;20252;-88
2023/11/26 01:59:53;;;;;;;14.20;7.13;;;4.40;1.00;;;;;;5030582;28;20194;-87
2023/11/26 02:02:18;;;;;;;12.13;6.07;;;4.30;1.00;;;;;;5010713;28;20959;-88
2023/11/26 02:04:44;;;;;;;12.73;6.10;;;4.30;1.00;;;;;;5027709;28;20237;-88
2023/11/26 02:07:10;;;;;;;11.53;6.03;;;4.30;1.00;;;;;;5029596;28;20210;-88
2023/11/26 02:09:37;;;;;;;10.05;6.00;;;4.20;1.00;;;;;;5015211;28;20197;-87
2023/11/26 02:12:07;;;;;;;19.65;7.07;;;4.20;1.00;;;;;;5026451;28;20182;-88
2023/11/26 02:14:33;;;;;;;20.75;7.13;;;4.20;1.00;;;;;;5013243;28;20674;-87
2023/11/26 02:16:58;;;;;;;17.97;6.93;;;4.20;1.00;;;;;;5032229;28;20206;-88
2023/11/26 02:19:32;;;;;;;17.23;6.77;;;4.20;1.00;;;;;;5029243;28;20206;-87
2023/11/26 02:22:00;;;;;;;16.83;7.15;;;4.10;1.00;;;;;;5025398;28;20192;-88
2023/11/26 02:24:29;;;;;;;23.67;6.97;;;4.10;1.00;;;;;;5025386;28;20616;-88
2023/11/26 02:26:55;;;;;;;19.05;7.75;;;4.10;1.00;;;;;;5005970;28;20625;-88
2023/11/26 02:29:22;;;;;;;21.50;7.53;;;4.10;1.00;;;;;;5017287;28;20182;-89
2023/11/26 02:31:48;;;;;;;16.95;7.35;;;4.00;1.00;;;;;;5030290;28;20437;-88
2023/11/26 02:34:14;;;;;;;20.70;7.63;;;4.10;1.00;;;;;;5030891;28;20188;-88
2023/11/26 02:36:39;;;;;;;17.70;8.27;;;4.00;1.00;;;;;;5018863;28;20454;-89
2023/11/26 02:39:05;;;;;;;24.30;9.90;;;4.00;1.00;;;;;;5009899;28;20715;-88
2023/11/26 02:41:35;;;;;;;15.90;8.60;;;4.00;1.00;;;;;;5012454;28;20250;-89
2023/11/26 02:44:00;;;;;;;17.33;8.43;;;4.00;1.00;;;;;;5026175;28;20588;-86
2023/11/26 02:46:27;;;;;;;20.17;9.10;;;4.00;1.00;;;;;;5013024;28;20229;-88
2023/11/26 02:48:53;;;;;;;22.67;9.50;;;4.00;1.00;;;;;;5029398;28;20187;-87
2023/11/26 02:51:19;;;;;;;25.93;9.60;;;4.00;1.00;;;;;;5031582;28;20257;-88
2023/11/26 02:53:44;;;;;;;25.47;10.17;;;4.00;1.00;;;;;;5038953;28;20186;-91
2023/11/26 02:56:12;;;;;;;25.33;9.20;;;4.00;1.00;;;;;;5025883;28;20187;-88
2023/11/26 02:58:41;;;;;;;31.27;9.05;;;4.00;1.00;;;;;;5017811;28;20186;-88
2023/11/26 03:01:07;;;;;;;22.45;9.85;;;3.90;1.00;;;;;;5014865;28;20179;-86
2023/11/26 03:03:33;;;;;;;22.20;9.20;;;3.90;1.00;;;;;;5013076;28;20179;-87
2023/11/26 03:05:58;;;;;;;28.15;10.38;;;3.90;1.00;;;;;;5013147;28;20437;-88
2023/11/26 03:08:32;;;;;;;20.97;9.60;;;3.90;1.00;;;;;;5014158;28;20186;-87
2023/11/26 03:13:42;;;;;;;14.73;9.48;;;3.90;1.00;;;;;;5040900;28;20561;-88
2023/11/26 03:16:08;;;;;;;28.43;10.00;;;3.90;1.00;;;;;;5031456;28;20199;-89
2023/11/26 03:18:36;;;;;;;13.52;9.95;;;3.90;1.00;;;;;;5014927;28;20186;-89
2023/11/26 03:21:03;;;;;;;18.77;9.98;;;3.90;1.00;;;;;;5021375;28;20202;-89
2023/11/26 03:23:30;;;;;;;16.73;9.10;;;3.80;1.00;;;;;;5030821;28;20221;-88
2023/11/26 03:25:56;;;;;;;22.45;10.13;;;3.80;1.00;;;;;;5013045;28;20205;-89
2023/11/26 03:28:22;;;;;;;16.27;9.50;;;3.80;1.00;;;;;;5015610;28;20178;-88
2023/11/26 03:30:49;;;;;;;26.33;9.60;;;3.80;1.00;;;;;;5026874;28;20657;-89
2023/11/26 03:33:17;;;;;;;23.10;10.25;;;3.80;1.00;;;;;;5014776;28;20476;-87
2023/11/26 03:35:43;;;;;;;25.95;10.02;;;3.80;1.00;;;;;;5028707;28;20202;-88
2023/11/26 03:38:09;;;;;;;24.30;11.50;;;3.70;1.00;;;;;;5029081;28;20260;-88
2023/11/26 03:40:35;;;;;;;29.17;11.23;;;3.70;1.00;;;;;;5015558;28;20210;-88
2023/11/26 03:43:01;;;;;;;21.40;10.48;;;3.70;1.00;;;;;;5009040;28;20190;-88
2023/11/26 03:45:26;;;;;;;21.63;11.07;;;3.70;1.00;;;;;;5027223;28;20174;-87
2023/11/26 03:47:52;;;;;;;18.37;11.67;;;3.70;1.00;;;;;;5026284;28;20223;-88
2023/11/26 03:50:19;;;;;;;28.23;12.50;;;3.60;1.00;;;;;;5036280;28;20196;-86
2023/11/26 03:52:45;;;;;;;18.00;12.38;;;3.60;1.00;;;;;;5032299;28;20210;-86
2023/11/26 03:55:11;;;;;;;27.02;11.80;;;3.60;1.00;;;;;;5013337;28;20236;-87
2023/11/26 03:57:37;;;;;;;23.30;11.75;;;3.60;1.00;;;;;;5014156;28;20212;-89
2023/11/26 04:00:10;;;;;;;22.17;13.30;;;3.60;1.00;;;;;;5029683;28;20206;-88
2023/11/26 04:02:36;;;;;;;26.40;14.20;;;3.60;3.10;;;;;;5030395;28;20636;-89
2023/11/26 04:05:04;;;;;;;23.75;13.27;;;3.60;6.60;;;;;;5012365;28;20202;-89
2023/11/26 04:07:29;;;;;;;26.55;13.45;;;3.60;10.00;;;;;;5015845;28;20277;-88
2023/11/26 04:09:55;;;;;;;35.23;15.60;;;3.70;13.60;;;;;;5012244;28;20303;-87
2023/11/26 04:12:20;;;;;;;27.13;13.63;;;3.70;16.70;;;;;;5030452;28;20190;-88
2023/11/26 04:14:54;;;;;;;29.20;15.43;;;3.70;20.00;;;;;;5015488;28;20178;-88
2023/11/26 04:17:21;;;;;;;28.95;15.52;;;3.80;23.20;;;;;;5006828;28;20206;-86
2023/11/26 04:19:47;;;;;;;33.05;18.05;;;3.80;25.80;;;;;;5016096;28;20210;-87
2023/11/26 04:22:12;;;;;;;38.75;17.65;;;3.90;29.80;;;;;;5029684;28;20238;-88
2023/11/26 04:24:41;;;;;;;36.53;15.67;;;3.90;34.60;;;;;;5014669;28;20175;-88
2023/11/26 04:27:07;;;;;;;31.88;16.55;;;4.00;38.70;;;;;;5011522;28;20221;-89
2023/11/26 04:29:32;;;;;;;30.97;18.17;;;4.00;41.50;;;;;;5015896;28;20459;-88
2023/11/26 04:31:58;;;;;;;28.93;17.43;;;4.00;43.30;;;;;;5028924;28;20194;-88
2023/11/26 04:34:24;;;;;;;40.03;17.13;;;4.10;42.50;;;;;;5013490;28;20190;-90
2023/11/26 04:36:50;;;;;;;34.50;16.70;;;4.20;39.90;;;;;;5030582;28;20211;-88
2023/11/26 04:39:16;;;;;;;42.53;17.10;;;4.20;38.50;;;;;;5011751;28;20210;-88
2023/11/26 04:41:41;;;;;;;28.47;17.40;;;4.20;37.80;;;;;;5016624;28;20210;-87
2023/11/26 04:44:07;;;;;;;27.73;17.23;;;4.30;36.20;;;;;;5030656;28;20209;-88
2023/11/26 04:46:33;;;;;;;32.10;17.07;;;4.30;30.90;;;;;;5016220;28;20208;-88
2023/11/26 04:48:58;;;;;;;30.05;16.42;;;4.30;28.30;;;;;;5054846;23;20226;-87
2023/11/26 04:51:24;;;;;;;28.60;16.80;;;4.30;24.80;;;;;;5035672;28;20190;-89
2023/11/26 04:53:50;;;;;;;30.63;16.60;;;4.30;20.50;;;;;;5043541;28;20195;-87
2023/11/26 04:56:18;;;;;;;26.75;16.13;;;4.20;17.50;;;;;;5044355;28;20316;-88
2023/11/26 04:58:44;;;;;;;32.08;16.40;;;4.20;17.00;;;;;;5039219;28;20233;-89
2023/11/26 05:01:17;;;;;;;29.53;14.53;;;4.10;15.10;;;;;;5038982;28;20180;-89
2023/11/26 05:03:44;;;;;;;26.23;15.82;;;4.10;16.90;;;;;;5027101;28;20430;-89
2023/11/26 05:06:11;;;;;;;31.27;17.60;;;4.10;18.50;;;;;;5036852;28;20206;-88
2023/11/26 05:08:36;;;;;;;29.95;18.20;;;4.10;20.30;;;;;;5038014;28;20293;-88
2023/11/26 05:11:02;;;;;;;27.30;17.60;;;4.10;22.80;;;;;;5040530;28;20218;-88
2023/11/26 05:13:28;;;;;;;40.60;19.97;;;4.10;23.40;;;;;;5037099;28;20242;-87
2023/11/26 05:15:53;;;;;;;38.25;17.73;;;4.10;24.90;;;;;;5033765;28;20187;-89
2023/11/26 05:18:20;;;;;;;29.97;18.37;;;4.20;29.90;;;;;;5030012;28;20258;-87
2023/11/26 05:20:47;;;;;;;40.38;19.70;;;4.20;31.30;;;;;;5040506;28;20198;-86
2023/11/26 05:23:13;;;;;;;35.13;17.98;;;4.20;31.60;;;;;;5040838;28;20202;-89
2023/11/26 05:25:38;;;;;;;28.60;17.00;;;4.30;32.40;;;;;;5042174;28;20183;-87
2023/11/26 05:28:04;;;;;;;30.73;17.73;;;4.30;32.40;;;;;;5027786;28;20683;-86
2023/11/26 05:30:29;;;;;;;47.23;19.83;;;4.30;33.20;;;;;;5038833;28;20179;-87
2023/11/26 05:32:57;;;;;;;46.17;18.50;;;4.30;33.80;;;;;;5034580;28;20675;-86
2023/11/26 05:35:23;;;;;;;38.10;20.13;;;4.30;34.80;;;;;;5032166;28;20183;-88
2023/11/26 05:37:48;;;;;;;37.57;19.00;;;4.40;33.80;;;;;;5030889;28;20204;-87
2023/11/26 05:40:14;;;;;;;41.13;20.07;;;4.40;33.50;;;;;;5037311;28;20487;-86
2023/11/26 05:42:40;;;;;;;42.22;20.83;;;4.40;32.80;;;;;;5031406;28;20567;-86
2023/11/26 05:45:06;;;;;;;38.90;21.60;;;4.50;34.20;;;;;;5038477;28;20281;-86
2023/11/26 05:47:32;;;;;;;39.23;21.97;;;4.50;33.60;;;;;;5035523;28;20213;-88
2023/11/26 05:49:58;;;;;;;44.03;21.70;;;4.60;38.00;;;;;;5030999;28;20457;-86
2023/11/26 05:52:23;;;;;;;38.75;21.15;;;4.60;41.60;;;;;;5035642;28;20202;-87
2023/11/26 05:54:49;;;;;;;50.63;23.50;;;4.60;42.20;;;;;;5037472;28;20210;-85
2023/11/26 05:57:15;;;;;;;70.37;25.33;;;4.60;42.40;;;;;;5035525;28;20235;-87
2023/11/26 05:59:40;;;;;;;45.03;24.60;;;4.70;45.00;;;;;;5040283;28;20209;-86
2023/11/26 06:02:06;;;;;;;54.27;24.13;;;4.70;45.20;;;;;;5038615;28;20435;-86
2023/11/26 06:04:32;;;;;;;47.60;22.83;;;4.70;46.10;;;;;;5034469;28;20625;-86
2023/11/26 06:06:58;;;;;;;53.17;24.02;;;4.80;46.60;;;;;;5032387;28;20190;-87
2023/11/26 06:09:24;;;;;;;45.25;23.80;;;4.80;44.80;;;;;;5037351;28;20206;-86
2023/11/26 06:11:50;;;;;;;43.95;23.33;;;4.80;44.30;;;;;;5021599;28;20183;-84
2023/11/26 06:14:16;;;;;;;42.93;23.67;;;4.80;43.60;;;;;;5029590;28;20191;-86
2023/11/26 06:16:42;;;;;;;45.57;21.67;;;4.80;45.20;;;;;;5029303;28;20208;-87
2023/11/26 06:19:08;;;;;;;50.45;23.85;;;4.90;45.10;;;;;;5034506;28;20465;-86
2023/11/26 06:21:33;;;;;;;55.03;24.47;;;4.90;43.80;;;;;;5036196;28;20532;-86
2023/11/26 06:23:59;;;;;;;39.30;23.50;;;4.90;41.20;;;;;;5027480;28;20660;-85
2023/11/26 06:26:24;;;;;;;47.10;23.20;;;4.90;41.60;;;;;;5038411;28;20205;-86
2023/11/26 06:28:50;;;;;;;43.77;21.27;;;4.90;41.80;;;;;;5025788;28;20524;-85
2023/11/26 06:31:20;;;;;;;49.27;21.43;;;4.90;41.30;;;;;;5033908;28;20187;-85
2023/11/26 06:33:46;;;;;;;45.72;21.48;;;4.90;38.90;;;;;;5026390;28;20211;-85
2023/11/26 06:36:21;;;;;;;54.67;23.95;;;4.90;40.00;;;;;;5033582;28;20555;-87
2023/11/26 06:38:49;;;;;;;51.38;21.95;;;4.90;40.10;;;;;;5035054;28;20345;-86
2023/11/26 06:41:29;;;;;;;43.67;21.63;;;5.00;43.40;;;;;;5034395;28;20183;-86
2023/11/26 06:43:56;;;;;;;44.47;21.05;;;5.00;43.30;;;;;;5036513;28;20269;-86
2023/11/26 06:46:23;;;;;;;47.85;20.50;;;5.00;42.90;;;;;;5036421;28;20190;-86
2023/11/26 06:48:50;;;;;;;46.33;21.60;;;5.00;43.10;;;;;;5031362;28;20293;-86
2023/11/26 06:51:17;;;;;;;37.47;20.20;;;5.00;42.40;;;;;;5028627;28;20187;-87
2023/11/26 06:53:43;;;;;;;45.60;20.05;;;5.00;42.50;;;;;;5032094;28;20178;-89
2023/11/26 06:56:09;;;;;;;41.83;20.60;;;5.10;42.40;;;;;;5034465;28;20175;-89
2023/11/26 06:58:43;;;;;;;48.13;23.03;;;5.10;39.60;;;;;;5026257;28;20672;-86
2023/11/26 07:01:09;;;;;;;46.45;19.88;;;5.10;39.40;;;;;;5029646;28;20193;-86
2023/11/26 07:03:35;;;;;;;44.97;22.42;;;5.10;41.60;;;;;;5029075;28;20198;-87
2023/11/26 07:06:04;;;;;;;43.20;20.60;;;5.20;44.50;;;;;;5033616;28;20181;-89
2023/11/26 07:08:31;;;;;;;39.42;20.70;;;5.30;44.80;;;;;;5032670;28;20465;-85
2023/11/26 07:10:57;;;;;;;42.92;19.25;;;5.40;39.50;;;;;;5036273;28;20190;-88
2023/11/26 07:13:22;;;;;;;48.22;21.20;;;5.50;32.90;;;;;;5031185;28;20182;-86
2023/11/26 07:15:48;;;;;;;39.90;21.90;;;5.50;27.60;;;;;;5029577;28;20202;-90
2023/11/26 07:18:14;;;;;;;44.17;19.80;;;5.50;23.60;;;;;;5045003;28;20230;-86
2023/11/26 07:20:43;;;;;;;43.60;20.27;;;5.50;22.00;;;;;;5030525;28;20219;-89
2023/11/26 07:23:09;;;;;;;43.78;19.70;;;5.60;20.00;;;;;;5024142;28;20191;-89
2023/11/26 07:25:34;;;;;;;41.63;19.70;;;5.60;18.10;;;;;;5025951;28;20175;-88
2023/11/26 07:28:02;;;;;;;39.00;21.03;;;5.60;17.00;;;;;;5030797;28;20584;-85
2023/11/26 07:30:29;;;;;;;40.40;19.92;;;5.60;15.40;;;;;;5031157;28;20566;-86
2023/11/26 07:32:55;;;;;;;42.47;20.83;;;5.70;15.30;;;;;;5033963;28;20558;-85
2023/11/26 07:35:20;;;;;;;45.10;19.73;;;5.70;12.70;;;;;;5028473;28;20197;-86
2023/11/26 07:37:48;;;;;;;48.03;23.17;;;5.80;10.90;;;;;;5027880;28;20456;-86
2023/11/26 07:40:14;;;;;;;45.78;21.48;;;5.80;8.00;;;;;;5026159;28;20210;-86
2023/11/26 07:42:41;;;;;;;43.13;19.77;;;5.80;7.10;;;;;;5033625;28;20178;-86
2023/11/26 07:45:07;;;;;;;36.58;18.35;;;5.90;6.60;;;;;;5033352;28;20619;-87
2023/11/26 07:47:33;;;;;;;43.92;20.77;;;5.90;3.90;;;;;;5025270;28;20179;-84
2023/11/26 07:49:58;;;;;;;35.13;18.93;;;6.00;1.00;;;;;;5029747;28;20248;-85
2023/11/26 07:52:24;;;;;;;43.17;20.83;;;6.10;1.00;;;;;;5018857;28;20186;-87
2023/11/26 07:54:49;;;;;;;37.57;18.33;;;6.10;1.00;;;;;;5028121;28;20191;-89
2023/11/26 07:57:15;;;;;;;37.87;19.00;;;6.20;1.00;;;;;;5030161;28;20732;-87
2023/11/26 07:59:43;;;;;;;42.83;20.50;;;6.30;1.00;;;;;;5023884;28;20206;-85
2023/11/26 08:02:13;;;;;;;40.58;19.35;;;6.40;1.00;;;;;;5028670;28;20237;-86
2023/11/26 08:04:38;;;;;;;34.38;19.77;;;6.50;1.00;;;;;;5029333;28;20171;-84
2023/11/26 08:07:05;;;;;;;40.33;20.30;;;6.60;1.00;;;;;;5023950;28;20574;-83
2023/11/26 08:09:32;;;;;;;38.10;19.05;;;6.70;1.00;;;;;;5018077;28;20199;-84
2023/11/26 08:12:00;;;;;;;38.90;20.83;;;6.80;1.00;;;;;;5025157;28;20533;-83
2023/11/26 08:14:26;;;;;;;48.08;20.35;;;6.80;1.00;;;;;;5026174;28;20183;-83
2023/11/26 08:16:54;;;;;;;33.75;18.17;;;6.80;1.00;;;;;;5015261;28;20238;-83
2023/11/26 08:19:23;;;;;;;37.28;19.88;;;6.80;1.00;;;;;;5027970;28;20699;-83
2023/11/26 08:21:49;;;;;;;34.08;18.67;;;6.80;1.00;;;;;;5031441;28;20561;-83
2023/11/26 08:24:18;;;;;;;39.53;19.23;;;6.80;1.00;;;;;;5032556;28;20183;-82
2023/11/26 08:26:46;;;;;;;43.55;17.83;;;6.80;1.00;;;;;;5027779;28;20175;-84
2023/11/26 08:29:13;;;;;;;37.72;18.83;;;6.80;1.00;;;;;;5020352;28;20213;-84
2023/11/26 08:31:39;;;;;;;37.05;18.23;;;6.80;1.00;;;;;;5029801;28;20228;-84
2023/11/26 08:34:05;;;;;;;34.90;17.27;;;6.80;1.00;;;;;;5031947;28;20186;-83
2023/11/26 08:36:33;;;;;;;42.80;19.20;;;6.80;1.00;;;;;;5033085;28;20190;-85
2023/11/26 08:39:00;;;;;;;34.13;17.15;;;6.80;1.00;;;;;;5036856;28;20211;-84
2023/11/26 08:41:26;;;;;;;40.40;18.60;;;6.90;1.00;;;;;;5031998;28;20201;-85
2023/11/26 08:43:51;;;;;;;30.83;18.77;;;6.90;1.00;;;;;;5034489;28;20192;-84
2023/11/26 08:46:19;;;;;;;31.13;19.63;;;6.90;1.00;;;;;;5035817;28;20558;-84
2023/11/26 08:48:45;;;;;;;32.10;17.52;;;7.00;1.00;;;;;;5038538;28;20465;-85
2023/11/26 08:51:11;;;;;;;32.80;18.80;;;7.00;1.00;;;;;;5038884;28;20266;-86
2023/11/26 08:53:36;;;;;;;33.38;19.52;;;7.00;1.00;;;;;;5025310;28;20511;-86
2023/11/26 08:56:02;;;;;;;37.50;18.17;;;7.00;1.00;;;;;;5028754;28;20326;-83
2023/11/26 08:58:28;;;;;;;34.00;16.83;;;7.10;1.00;;;;;;5035071;28;20230;-83
2023/11/26 09:00:56;;;;;;;42.67;20.10;;;7.10;1.00;;;;;;5038571;28;20476;-82
2023/11/26 09:03:22;;;;;;;42.08;19.30;;;7.20;1.00;;;;;;5037751;28;20178;-85
2023/11/26 09:05:48;;;;;;;35.13;20.33;;;7.20;1.00;;;;;;5033002;28;20182;-85
2023/11/26 09:08:14;;;;;;;41.57;20.23;;;7.30;1.00;;;;;;5034778;28;20214;-84
2023/11/26 09:10:39;;;;;;;37.17;17.80;;;7.30;1.00;;;;;;5033917;28;20441;-86
2023/11/26 09:13:05;;;;;;;32.80;17.90;;;7.20;1.00;;;;;;5028289;28;20210;-84
2023/11/26 09:15:31;;;;;;;38.00;20.33;;;7.20;1.00;;;;;;5034541;28;20211;-84
2023/11/26 09:17:56;;;;;;;35.10;17.77;;;7.30;1.00;;;;;;5037340;28;20198;-83
2023/11/26 09:20:22;;;;;;;36.43;18.57;;;7.20;1.00;;;;;;5040766;28;20461;-85
2023/11/26 09:22:48;;;;;;;34.13;18.47;;;7.30;1.00;;;;;;5040465;28;20174;-86
2023/11/26 09:25:14;;;;;;;32.87;20.23;;;7.30;1.00;;;;;;5038263;28;20186;-84
2023/11/26 09:27:43;;;;;;;33.40;18.27;;;7.40;1.00;;;;;;5036024;28;20285;-84
2023/11/26 09:30:09;;;;;;;35.70;18.08;;;7.50;1.00;;;;;;5019197;28;20477;-85
2023/11/26 09:32:35;;;;;;;35.33;18.07;;;7.50;1.00;;;;;;5036363;28;20568;-86
2023/11/26 09:35:01;;;;;;;36.20;19.45;;;7.60;1.00;;;;;;5030733;28;20461;-88
2023/11/26 09:37:28;;;;;;;35.17;19.20;;;7.60;1.00;;;;;;5029306;28;20691;-84
2023/11/26 09:39:53;;;;;;;38.55;17.42;;;7.60;1.00;;;;;;5035233;28;20207;-85
2023/11/26 09:42:23;;;;;;;28.40;17.10;;;7.60;1.00;;;;;;5036636;28;20193;-85
2023/11/26 09:44:49;;;;;;;36.20;20.87;;;7.70;1.00;;;;;;5037627;28;20187;-84
2023/11/26 09:47:15;;;;;;;39.97;17.53;;;7.80;1.00;;;;;;5033832;28;20433;-84
2023/11/26 09:49:41;;;;;;;33.97;17.60;;;7.80;1.00;;;;;;5033192;28;20488;-84
2023/11/26 09:52:06;;;;;;;30.42;16.55;;;7.90;1.00;;;;;;5035654;28;20530;-85
2023/11/26 09:54:32;;;;;;;28.60;16.03;;;8.00;1.00;;;;;;5030771;28;20333;-85
2023/11/26 09:57:02;;;;;;;26.83;17.07;;;8.00;1.00;;;;;;5033542;28;20689;-86
2023/11/26 09:59:31;;;;;;;30.33;17.27;;;8.00;1.00;;;;;;5029650;28;20218;-85
2023/11/26 10:01:58;;;;;;;27.50;15.88;;;8.10;1.00;;;;;;5030952;28;20468;-83
2023/11/26 10:04:24;;;;;;;24.50;16.63;;;8.10;1.00;;;;;;5034021;28;20530;-85
2023/11/26 10:06:52;;;;;;;25.73;14.97;;;8.10;1.00;;;;;;5033810;28;20493;-84
2023/11/26 10:09:18;;;;;;;27.93;15.70;;;8.20;1.00;;;;;;5030999;28;21067;-85
2023/11/26 10:11:44;;;;;;;31.97;17.60;;;8.30;1.00;;;;;;5022523;28;20477;-84
2023/11/26 10:14:15;;;;;;;33.90;17.90;;;8.30;1.00;;;;;;5029487;28;20441;-83
2023/11/26 10:16:41;;;;;;;24.90;15.50;;;8.40;1.00;;;;;;5020323;28;20557;-83
2023/11/26 10:19:07;;;;;;;26.73;17.03;;;8.50;1.00;;;;;;5023132;28;20565;-85
2023/11/26 10:21:33;;;;;;;29.20;17.80;;;8.60;1.00;;;;;;5031447;28;20460;-85
2023/11/26 10:24:04;;;;;;;30.90;17.23;;;8.70;1.00;;;;;;5029597;28;20179;-84
2023/11/26 10:26:31;;;;;;;30.13;15.63;;;8.80;1.00;;;;;;5034995;28;20967;-83
2023/11/26 10:29:08;;;;;;;24.57;16.67;;;8.90;99.90;;;;;;5035543;28;20811;-84
2023/11/26 10:31:38;;;;;;;23.90;16.20;;;9.00;99.90;;;;;;5030899;28;20781;-83
2023/11/26 10:34:14;;;;;;;22.47;15.43;;;9.10;99.90;;;;;;5028971;28;20434;-84
2023/11/26 10:36:39;;;;;;;25.10;15.50;;;9.20;99.90;;;;;;5026838;28;20409;-83
2023/11/26 10:39:09;;;;;;;29.53;16.97;;;9.30;1.00;;;;;;5031604;28;20475;-84
2023/11/26 10:41:36;;;;;;;22.57;15.43;;;9.30;7.20;;;;;;5035348;28;20171;-84
2023/11/26 10:44:03;;;;;;;23.17;14.30;;;9.30;41.10;;;;;;5035608;28;20420;-83
2023/11/26 10:46:33;;;;;;;22.47;14.00;;;9.30;99.90;;;;;;5035202;28;20418;-83
2023/11/26 10:49:16;;;;;;;23.97;14.83;;;9.30;99.90;;;;;;5028714;28;20501;-88
2023/11/26 10:51:49;;;;;;;26.53;16.50;;;9.30;99.90;;;;;;5023297;28;20482;-84
2023/11/26 10:54:44;;;;;;;26.30;17.70;;;9.40;99.90;;;;;;5022422;28;20429;-85
2023/11/26 10:57:15;;;;;;;24.53;15.10;;;9.50;23.80;;;;;;5024733;28;20179;-85
2023/11/26 10:59:45;;;;;;;26.10;14.80;;;9.50;1.00;;;;;;5024298;28;20465;-83
2023/11/26 11:02:16;;;;;;;23.03;14.97;;;9.50;1.00;;;;;;5016812;28;20481;-84
2023/11/26 11:04:46;;;;;;;18.53;12.10;;;9.50;1.00;;;;;;5029382;28;20433;-85
2023/11/26 11:07:13;;;;;;;26.97;13.97;;;9.50;1.00;;;;;;5023726;28;20430;-84
2023/11/26 11:09:51;;;;;;;20.90;14.70;;;9.50;1.00;;;;;;5024210;28;20839;-85
2023/11/26 11:12:21;;;;;;;23.20;13.80;;;9.40;1.00;;;;;;5030807;28;20459;-85
2023/11/26 11:14:47;;;;;;;20.20;14.00;;;9.40;84.20;;;;;;5030484;28;20449;-84
2023/11/26 11:17:29;;;;;;;26.83;13.67;;;9.40;99.90;;;;;;5025947;28;20433;-84
2023/11/26 11:19:55;;;;;;;23.50;15.37;;;9.60;99.90;;;;;;5019896;28;20464;-84
2023/11/26 11:22:39;;;;;;;23.83;14.87;;;9.70;1.40;;;;;;5024025;28;20815;-83
2023/11/26 11:25:06;;;;;;;20.50;14.73;;;9.70;1.00;;;;;;5025902;28;20434;-86
2023/11/26 11:27:51;;;;;;;16.80;12.73;;;9.70;1.00;;;;;;5023247;28;20808;-83
2023/11/26 11:30:32;;;;;;;25.33;15.50;;;9.60;1.00;;;;;;5031767;28;20425;-85
2023/11/26 11:33:06;;;;;;;18.80;13.20;;;9.40;1.00;;;;;;5033041;28;20437;-85
2023/11/26 11:35:36;;;;;;;20.67;12.00;;;9.40;50.10;;;;;;5034497;28;20456;-84
2023/11/26 11:38:05;;;;;;;20.73;13.90;;;9.30;99.90;;;;;;5027603;28;20989;-84
2023/11/26 11:41:00;;;;;;;16.47;12.37;;;9.20;99.90;;;;;;5030592;28;20477;-87
2023/11/26 11:43:27;;;;;;;24.73;13.30;;;9.10;99.90;;;;;;5028059;28;20429;-85
2023/11/26 11:45:54;;;;;;;22.33;13.93;;;9.10;99.90;;;;;;5026831;28;21173;-85
2023/11/26 11:48:37;;;;;;;16.33;12.77;;;9.10;99.90;;;;;;5028270;28;20498;-87
2023/11/26 11:51:43;;;;;;;20.70;13.03;;;9.10;99.90;;;;;;5017155;28;20441;-84
2023/11/26 11:54:11;;;;;;;19.80;13.47;;;9.10;99.90;;;;;;5033468;28;20441;-88
2023/11/26 11:56:44;;;;;;;19.73;12.60;;;9.20;99.90;;;;;;5028951;28;20473;-84
2023/11/26 11:59:10;;;;;;;21.00;11.67;;;9.20;99.90;;;;;;5024688;28;20482;-85
2023/11/26 12:01:38;;;;;;;15.23;11.50;;;9.20;99.90;;;;;;5030964;28;20442;-86
2023/11/26 12:04:03;;;;;;;20.80;13.80;;;9.20;99.90;;;;;;5029677;28;20446;-83
2023/11/26 12:06:30;;;;;;;19.77;10.70;;;9.20;99.90;;;;;;5026655;28;20798;-85
2023/11/26 12:09:00;;;;;;;15.90;12.07;;;9.30;99.90;;;;;;5029255;28;20202;-84
2023/11/26 12:11:27;;;;;;;16.97;12.73;;;9.40;99.90;;;;;;5027275;28;20433;-85
2023/11/26 12:13:53;;;;;;;16.73;11.30;;;9.40;99.90;;;;;;5034320;28;20861;-86
2023/11/26 12:16:21;;;;;;;14.77;12.23;;;9.40;99.90;;;;;;5028816;28;20497;-85
2023/11/26 12:18:55;;;;;;;25.07;11.70;;;9.40;99.90;;;;;;5034262;28;20468;-85
2023/11/26 12:21:23;;;;;;;15.33;11.20;;;9.40;99.90;;;;;;5031183;28;20457;-84
2023/11/26 12:23:50;;;;;;;19.37;11.43;;;9.40;99.90;;;;;;5018963;28;20442;-86
2023/11/26 12:26:16;;;;;;;13.83;10.80;;;9.40;99.90;;;;;;5028897;28;20437;-86
2023/11/26 12:28:46;;;;;;;13.93;9.80;;;9.30;99.90;;;;;;5026945;28;20457;-84
2023/11/26 12:31:12;;;;;;;13.63;10.90;;;9.30;99.90;;;;;;5025488;28;20441;-87
2023/11/26 12:33:43;;;;;;;14.17;11.57;;;9.30;99.90;;;;;;5024917;28;20425;-86
2023/11/26 12:36:18;;;;;;;17.30;11.20;;;9.20;99.90;;;;;;5021354;28;20596;-86
2023/11/26 12:38:44;;;;;;;13.53;10.80;;;9.20;99.90;;;;;;5021668;28;20579;-84
2023/11/26 12:41:10;;;;;;;14.93;11.67;;;9.20;99.90;;;;;;5014885;28;20529;-83
2023/11/26 12:43:36;;;;;;;15.70;12.18;;;9.10;99.90;;;;;;5017422;28;20432;-86
2023/11/26 12:46:12;;;;;;;20.37;12.37;;;9.10;99.90;;;;;;5024750;28;20186;-86
2023/11/26 12:48:39;;;;;;;17.90;11.77;;;9.10;99.90;;;;;;5030474;28;21047;-85